Portada
METAR-TAF:

METAR-TAF

Aeroports :

Tanegashima, Japó

latitud: 30-33N, longitud: 130-57E, altitud: 92 m

Observació

L'informe es va fer fa 9 hores i 17 minuts, a les 09:00 UTC
Vent 8 kt del Sud-Est
Temperatura 23°C
Humitat 65%
Pressió 1017 hPa
Visibilitat 10 km o més
Escasses núvols a una alçada de 2500 ft
Cel ennuvolat

METAR: RJFG 260900Z 14008KT 9999 FEW025 BKN/// 23/16 Q1017

Hora: 03:17 (18:17 UTC)


TAF: manca

Observacions i pronòstics meteorològics de més de 4000 aeroports (METAR i TAF).

Les estacions disponibles són els punts grocs i vermells al mapa.

Posi el ratolí al punt desitjat per veure el nom de l'estació.

Feu clic per veure les observacions i els pronòstics meteorològics.

Per canviar el mapa: feu clic els botons verds amb una creu de color negre per apropar; al botó verd amb un guió per allunyar la imatge; o en les fletxes verdes per a mapes adjacents.


METAR-TAF: